Time;durP1;ratioP1;P1;durP2;ratioP2;P2;SDS_P1;SDS_P2;PMS_P1;PMS_P2;Temp;Humidity;BMP_temperature;BMP_pressure;BME280_temperature;BME280_humidity;BME280_pressure;Samples;Min_cycle;Max_cycle;Signal;HPM_P1;HPM_P2
2022/12/18 00:04:50;;;;;;;94.93;50.63;;;-8.20;99.90;;;;;;2614474;54;20436;-76
2022/12/18 00:10:37;;;;;;;97.00;55.87;;;-8.30;99.90;;;;;;2615408;54;20129;-77
2022/12/18 00:16:26;;;;;;;100.97;55.93;;;-8.30;99.90;;;;;;2613694;54;20134;-76
2022/12/18 00:22:14;;;;;;;103.50;53.17;;;-8.30;99.90;;;;;;2614706;54;20411;-77
2022/12/18 00:28:04;;;;;;;110.53;54.23;;;-8.20;99.90;;;;;;2613761;54;20161;-78
2022/12/18 00:33:56;;;;;;;89.67;51.10;;;-8.20;99.90;;;;;;2618262;39;20857;-79
2022/12/18 00:39:43;;;;;;;79.80;48.20;;;-8.20;99.90;;;;;;2618099;54;20423;-81
2022/12/18 00:45:31;;;;;;;78.10;49.10;;;-8.30;99.90;;;;;;2618883;54;20151;-77
2022/12/18 00:51:19;;;;;;;83.73;48.60;;;-8.30;99.90;;;;;;2621048;39;20474;-77
2022/12/18 00:57:07;;;;;;;84.40;49.33;;;-8.30;99.90;;;;;;2617650;54;20170;-75
2022/12/18 01:06:17;;;;;;;73.47;46.23;;;-8.50;99.90;;;;;;2616349;54;20407;-78
2022/12/18 01:12:05;;;;;;;71.23;44.97;;;-8.40;99.90;;;;;;2619988;39;20517;-78
2022/12/18 01:17:53;;;;;;;86.90;47.17;;;-8.60;99.90;;;;;;2618255;54;20439;-78
2022/12/18 01:23:41;;;;;;;80.20;48.03;;;-8.30;99.90;;;;;;2616086;39;20432;-79
2022/12/18 01:29:28;;;;;;;86.00;46.77;;;-8.40;99.90;;;;;;2616169;54;20187;-78
2022/12/18 01:35:16;;;;;;;80.07;46.83;;;-8.30;99.90;;;;;;2616963;54;20387;-76
2022/12/18 01:41:04;;;;;;;65.30;40.23;;;-8.50;99.90;;;;;;2616135;54;20150;-76
2022/12/18 01:46:52;;;;;;;103.53;45.43;;;-8.40;99.90;;;;;;2615516;54;20142;-78
2022/12/18 01:52:43;;;;;;;68.13;42.20;;;-8.40;99.90;;;;;;2617523;54;20398;-76
2022/12/18 02:01:48;;;;;;;82.23;47.87;;;-8.40;99.90;;;;;;2616469;54;20938;-78
2022/12/18 02:04:25;;;;;;;77.20;42.00;;;-8.50;99.90;;;;;;2617151;54;20402;-77
2022/12/18 02:10:26;;;;;;;81.93;44.80;;;-8.50;99.90;;;;;;2615684;54;20391;-75
2022/12/18 02:16:19;;;;;;;85.47;45.60;;;-8.50;99.90;;;;;;2614772;54;20394;-74
2022/12/18 02:26:06;;;;;;;57.63;41.00;;;-8.30;99.90;;;;;;2616192;54;20398;-78
2022/12/18 02:28:37;;;;;;;67.17;41.33;;;-8.40;99.90;;;;;;2615404;47;20410;-77
2022/12/18 02:34:30;;;;;;;60.50;34.93;;;-8.30;99.90;;;;;;2615223;54;20518;-76
2022/12/18 02:40:19;;;;;;;67.93;37.50;;;-8.40;99.90;;;;;;2614239;54;20399;-78
2022/12/18 02:46:25;;;;;;;67.53;39.27;;;-8.20;99.90;;;;;;2615041;54;20415;-76
2022/12/18 02:58:46;;;;;;;68.77;35.87;;;-7.90;99.90;;;;;;2614659;54;20508;-76
2022/12/18 03:17:34;;;;;;;57.00;39.20;;;-8.00;99.90;;;;;;2612784;54;20418;-74
2022/12/18 03:23:28;;;;;;;63.13;38.17;;;-8.40;99.90;;;;;;2612718;54;20390;-76
2022/12/18 03:29:22;;;;;;;60.87;38.00;;;-8.40;99.90;;;;;;2612420;54;20391;-76
2022/12/18 03:35:13;;;;;;;61.73;37.80;;;-8.40;99.90;;;;;;2613028;54;20399;-79
2022/12/18 03:54:09;;;;;;;66.80;36.43;;;-8.40;99.90;;;;;;2615409;54;20419;-76
2022/12/18 04:06:43;;;;;;;60.97;34.97;;;-8.80;99.90;;;;;;2612872;54;20437;-75
2022/12/18 04:12:30;;;;;;;62.33;38.63;;;-8.60;99.90;;;;;;2614428;54;20499;-73
2022/12/18 04:18:18;;;;;;;61.93;37.30;;;-8.60;99.90;;;;;;2614493;54;20127;-75
2022/12/18 04:24:06;;;;;;;70.17;37.27;;;-9.00;99.90;;;;;;2614470;54;20383;-74
2022/12/18 04:29:53;;;;;;;57.17;34.00;;;-8.90;99.90;;;;;;2614179;54;20397;-74
2022/12/18 04:35:41;;;;;;;61.47;35.63;;;-8.90;99.90;;;;;;2613780;54;20138;-74
2022/12/18 04:41:28;;;;;;;64.03;35.33;;;-8.90;99.90;;;;;;2615176;54;20363;-76
2022/12/18 04:47:16;;;;;;;71.50;39.33;;;-8.90;99.90;;;;;;2615129;54;20143;-76
2022/12/18 04:53:04;;;;;;;72.77;41.40;;;-8.90;99.90;;;;;;2615754;46;20153;-77
2022/12/18 04:58:51;;;;;;;59.33;36.53;;;-8.80;99.90;;;;;;2616340;54;20142;-76
2022/12/18 05:01:46;;;;;;;79.50;38.50;;;-8.70;99.90;;;;;;2614225;47;20418;-76
2022/12/18 05:04:11;;;;;;;62.43;37.83;;;-8.80;99.90;;;;;;2615631;46;20159;-76
2022/12/18 05:09:59;;;;;;;59.60;37.83;;;-8.90;99.90;;;;;;2614720;54;20154;-76
2022/12/18 05:15:52;;;;;;;54.40;35.10;;;-8.90;99.90;;;;;;2614842;54;20135;-77
2022/12/18 05:21:40;;;;;;;55.47;35.50;;;-8.90;99.90;;;;;;2614418;54;20381;-77
2022/12/18 05:27:27;;;;;;;48.57;32.90;;;-9.00;99.90;;;;;;2615676;54;20127;-74
2022/12/18 05:33:15;;;;;;;43.93;32.07;;;-9.00;99.90;;;;;;2614564;54;20133;-76
2022/12/18 05:39:03;;;;;;;61.73;33.00;;;-9.10;99.90;;;;;;2614721;54;20130;-78
2022/12/18 05:44:51;;;;;;;59.63;34.97;;;-9.30;99.90;;;;;;2614909;54;20960;-76
2022/12/18 05:50:40;;;;;;;54.80;34.20;;;-9.20;99.90;;;;;;2614868;39;20569;-76
2022/12/18 05:56:28;;;;;;;53.80;34.97;;;-9.20;99.90;;;;;;2614747;54;20434;-75
2022/12/18 06:06:19;;;;;;;47.57;32.27;;;-9.20;99.90;;;;;;2614264;54;20435;-75
2022/12/18 06:12:07;;;;;;;54.27;32.97;;;-9.20;99.90;;;;;;2615542;54;20379;-77
2022/12/18 06:17:55;;;;;;;46.43;30.47;;;-9.20;99.90;;;;;;2614755;54;20210;-75
2022/12/18 06:23:43;;;;;;;59.20;33.90;;;-9.30;99.90;;;;;;2613101;54;20214;-78
2022/12/18 06:29:31;;;;;;;58.47;34.23;;;-9.20;99.90;;;;;;2615328;54;20367;-76
2022/12/18 06:35:18;;;;;;;59.13;34.00;;;-9.30;99.90;;;;;;2615456;54;20262;-76
2022/12/18 06:41:15;;;;;;;48.67;30.50;;;-9.10;99.90;;;;;;2615015;54;20223;-77
2022/12/18 06:47:03;;;;;;;56.80;32.50;;;-9.10;99.90;;;;;;2614197;54;21023;-76
2022/12/18 06:52:51;;;;;;;47.73;30.70;;;-9.20;99.90;;;;;;2613829;54;20371;-76
2022/12/18 06:58:39;;;;;;;48.63;31.40;;;-9.30;99.90;;;;;;2614833;54;20679;-76
2022/12/18 07:01:43;;;;;;;55.33;35.00;;;-9.40;99.90;;;;;;2614481;54;20416;-77
2022/12/18 07:07:49;;;;;;;47.27;30.37;;;-9.30;99.90;;;;;;2614060;54;20982;-76
2022/12/18 07:13:36;;;;;;;54.73;33.93;;;-9.40;99.90;;;;;;2613618;54;20395;-77
2022/12/18 07:19:24;;;;;;;44.13;30.30;;;-9.30;99.90;;;;;;2614455;54;20134;-77
2022/12/18 07:25:11;;;;;;;53.53;28.00;;;-9.30;99.90;;;;;;2614091;54;20758;-76
2022/12/18 07:34:36;;;;;;;47.50;30.90;;;-9.10;99.90;;;;;;2614151;54;20494;-78
2022/12/18 07:40:24;;;;;;;54.63;30.87;;;-9.00;99.90;;;;;;2613845;54;20167;-76
2022/12/18 07:46:13;;;;;;;52.13;28.80;;;-8.80;99.90;;;;;;2612998;39;20455;-77
2022/12/18 07:52:01;;;;;;;52.90;31.80;;;-8.50;99.90;;;;;;2613767;54;20400;-77
2022/12/18 07:57:48;;;;;;;59.40;34.43;;;-8.50;99.90;;;;;;2611838;54;20381;-77
2022/12/18 08:07:47;;;;;;;49.47;32.40;;;-8.20;99.90;;;;;;2613655;54;20434;-76
2022/12/18 08:13:35;;;;;;;49.90;34.50;;;-8.10;99.90;;;;;;2614943;54;20415;-77
2022/12/18 08:16:38;;;;;;;67.10;41.37;;;-8.00;99.90;;;;;;2613479;54;20402;-77
2022/12/18 08:19:04;;;;;;;73.53;42.23;;;-7.90;99.90;;;;;;2614695;54;20162;-76
2022/12/18 08:24:51;;;;;;;70.03;37.17;;;-6.10;99.90;;;;;;2612999;54;20766;-78
2022/12/18 08:30:39;;;;;;;78.03;41.03;;;-6.10;99.90;;;;;;2614133;54;20157;-78
2022/12/18 08:36:27;;;;;;;67.13;40.50;;;-6.50;99.90;;;;;;2616213;54;20154;-77
2022/12/18 08:48:22;;;;;;;61.23;38.70;;;-4.90;99.90;;;;;;2615945;54;20379;-77
2022/12/18 08:50:57;;;;;;;61.10;37.57;;;-4.10;99.90;;;;;;2615459;54;20399;-77
2022/12/18 08:53:24;;;;;;;73.70;46.37;;;-4.70;99.90;;;;;;2615630;54;20151;-77
2022/12/18 08:59:11;;;;;;;51.00;32.37;;;-3.70;99.90;;;;;;2616209;54;20378;-74
2022/12/18 09:08:21;;;;;;;47.30;32.70;;;-3.00;99.90;;;;;;2615874;54;20455;-77
2022/12/18 09:14:10;;;;;;;49.03;36.00;;;-2.70;99.90;;;;;;2616287;54;20123;-75
2022/12/18 09:19:58;;;;;;;49.53;32.93;;;-2.80;99.90;;;;;;2615929;54;20386;-78
2022/12/18 09:25:45;;;;;;;40.97;30.67;;;-2.70;99.90;;;;;;2615315;54;20122;-76
2022/12/18 09:31:33;;;;;;;42.40;31.43;;;-2.50;99.90;;;;;;2615217;39;20545;-76
2022/12/18 09:37:21;;;;;;;44.87;33.37;;;-0.80;98.90;;;;;;2614479;54;20567;-76
2022/12/18 09:49:43;;;;;;;40.70;32.80;;;0.70;84.70;;;;;;2615469;54;20406;-76
2022/12/18 09:55:31;;;;;;;44.47;34.27;;;0.40;97.90;;;;;;2615553;54;20399;-75
2022/12/18 10:01:22;;;;;;;46.50;41.27;;;0.10;99.90;;;;;;2615457;39;20644;-76
2022/12/18 10:03:48;;;;;;;42.67;34.00;;;-0.40;99.90;;;;;;2614958;54;20960;-76
2022/12/18 10:06:19;;;;;;;44.90;38.40;;;-0.40;99.90;;;;;;2615009;54;20415;-74
2022/12/18 10:18:32;;;;;;;13.13;11.83;;;2.20;63.90;;;;;;2612088;54;20375;-76
2022/12/18 10:30:46;;;;;;;12.10;11.10;;;3.60;18.60;;;;;;2615163;54;20431;-74
2022/12/18 10:36:34;;;;;;;11.70;10.90;;;3.80;17.70;;;;;;2612068;54;20407;-75
2022/12/18 10:42:22;;;;;;;12.37;11.57;;;3.80;19.50;;;;;;2615238;39;20831;-74
2022/12/18 10:48:22;;;;;;;12.83;12.03;;;3.90;15.30;;;;;;2611089;54;20138;-76
2022/12/18 11:00:43;;;;;;;12.57;11.30;;;4.50;15.60;;;;;;2614789;54;20494;-74
2022/12/18 11:07:03;;;;;;;13.40;12.40;;;4.40;14.50;;;;;;2613401;46;20189;-75
2022/12/18 11:12:51;;;;;;;20.37;11.00;;;4.20;14.80;;;;;;2614004;54;20491;-75
2022/12/18 11:18:38;;;;;;;12.13;11.13;;;3.90;15.80;;;;;;2613304;39;21042;-76
2022/12/18 11:24:28;;;;;;;11.87;10.77;;;4.10;14.60;;;;;;2613817;54;20698;-75
2022/12/18 11:30:25;;;;;;;13.07;11.93;;;4.10;13.80;;;;;;2612998;54;20374;-75
2022/12/18 11:36:14;;;;;;;10.57;9.67;;;4.10;15.50;;;;;;2614303;54;20390;-76
2022/12/18 11:55:20;;;;;;;12.93;12.03;;;3.90;14.70;;;;;;2612965;54;20422;-76
2022/12/18 12:24:24;;;;;;;14.87;11.13;;;4.20;11.10;;;;;;2612985;54;20396;-76
2022/12/18 12:54:05;;;;;;;11.80;10.70;;;4.20;11.70;;;;;;2614013;54;20875;-77
2022/12/18 13:13:07;;;;;;;12.93;11.73;;;4.10;10.90;;;;;;2614851;54;20374;-77
2022/12/18 13:18:58;;;;;;;12.10;11.07;;;4.00;11.90;;;;;;2614985;54;20407;-74
2022/12/18 13:24:46;;;;;;;14.13;12.77;;;3.90;11.50;;;;;;2614411;54;20381;-75
2022/12/18 13:30:34;;;;;;;12.17;11.23;;;3.80;12.10;;;;;;2614369;46;20411;-75
2022/12/18 13:36:30;;;;;;;13.03;11.70;;;3.70;12.00;;;;;;2614577;54;20288;-77
2022/12/18 13:48:26;;;;;;;14.07;12.67;;;3.40;14.20;;;;;;2610589;46;20408;-75
2022/12/18 14:00:43;;;;;;;13.27;12.10;;;3.20;15.10;;;;;;2615161;54;20471;-75
2022/12/18 14:17:15;;;;;;;17.40;14.20;;;3.00;16.50;;;;;;2613565;54;20395;-79
2022/12/18 14:26:30;;;;;;;17.00;15.30;;;2.90;16.50;;;;;;2615117;54;20928;-77
2022/12/18 14:32:20;;;;;;;15.47;13.87;;;2.70;17.60;;;;;;2613574;54;20390;-77
2022/12/18 14:37:37;;;;;;;16.57;14.97;;;2.60;17.70;;;;;;2615399;54;20403;-78
2022/12/18 14:43:27;;;;;;;19.17;15.33;;;2.70;17.20;;;;;;2614785;54;20142;-77
2022/12/18 14:49:27;;;;;;;21.03;16.17;;;2.60;17.60;;;;;;2614629;54;20391;-77
2022/12/18 14:55:19;;;;;;;19.33;16.80;;;2.70;16.80;;;;;;2614209;54;20943;-78
2022/12/18 15:01:07;;;;;;;18.27;15.07;;;2.50;17.30;;;;;;2615424;54;20367;-77
2022/12/18 15:10:54;;;;;;;18.63;15.20;;;2.40;18.50;;;;;;2615256;54;20535;-77
2022/12/18 15:16:41;;;;;;;18.83;15.77;;;2.30;19.10;;;;;;2615012;54;20386;-78
2022/12/18 15:22:33;;;;;;;16.30;14.70;;;2.50;17.20;;;;;;2615729;54;20130;-77
2022/12/18 15:28:30;;;;;;;22.33;17.73;;;2.40;17.40;;;;;;2615807;54;20418;-77
2022/12/18 15:34:23;;;;;;;17.07;14.53;;;2.30;18.30;;;;;;2615238;54;20411;-77
2022/12/18 15:40:16;;;;;;;19.93;16.30;;;2.30;17.50;;;;;;2613770;46;20386;-78
2022/12/18 15:46:06;;;;;;;17.57;15.90;;;2.30;17.70;;;;;;2614821;54;20375;-78
2022/12/18 15:51:58;;;;;;;17.57;15.73;;;2.30;18.10;;;;;;2615168;54;20383;-77
2022/12/18 15:57:46;;;;;;;15.93;14.37;;;2.30;19.40;;;;;;2615212;54;20398;-78
2022/12/18 16:03:34;;;;;;;19.93;15.70;;;2.20;20.30;;;;;;2615348;54;20130;-78
2022/12/18 16:06:20;;;;;;;17.70;14.90;;;2.20;21.30;;;;;;2616246;54;20976;-78
2022/12/18 16:08:46;;;;;;;20.10;16.63;;;2.10;22.50;;;;;;2614137;54;20683;-78
2022/12/18 16:14:34;;;;;;;20.20;16.40;;;2.10;23.30;;;;;;2614963;54;20334;-78
2022/12/18 16:20:22;;;;;;;21.20;19.07;;;2.10;24.60;;;;;;2614598;54;20222;-77
2022/12/18 16:26:10;;;;;;;23.83;18.97;;;2.10;27.10;;;;;;2614421;54;21249;-78
2022/12/18 16:32:00;;;;;;;19.70;17.00;;;2.00;29.00;;;;;;2613581;54;20382;-77
2022/12/18 16:37:48;;;;;;;18.03;14.93;;;2.00;31.70;;;;;;2614932;54;20429;-78
2022/12/18 16:43:36;;;;;;;20.70;18.20;;;1.90;34.20;;;;;;2614187;54;20173;-77
2022/12/18 16:49:23;;;;;;;24.60;18.10;;;1.90;39.50;;;;;;2616118;54;20167;-77
2022/12/18 16:55:11;;;;;;;23.93;19.37;;;1.90;40.60;;;;;;2614337;54;20166;-76
2022/12/18 17:00:59;;;;;;;19.50;17.50;;;1.90;44.30;;;;;;2614424;54;20134;-77
2022/12/18 17:10:56;;;;;;;22.63;19.10;;;1.80;50.00;;;;;;2614558;54;20431;-77
2022/12/18 17:16:45;;;;;;;22.27;19.53;;;1.80;54.90;;;;;;2612730;39;20776;-78
2022/12/18 17:22:33;;;;;;;22.50;18.17;;;1.80;58.10;;;;;;2614744;54;20377;-75
2022/12/18 17:28:20;;;;;;;23.73;18.17;;;1.70;61.20;;;;;;2614198;54;20234;-76
2022/12/18 17:34:13;;;;;;;24.90;20.77;;;1.80;63.90;;;;;;2614807;54;20726;-76
2022/12/18 17:40:01;;;;;;;24.83;19.93;;;1.70;66.40;;;;;;2614951;54;20398;-76
2022/12/18 17:45:48;;;;;;;31.33;19.07;;;1.70;69.90;;;;;;2615349;54;20162;-78
2022/12/18 17:51:36;;;;;;;26.80;21.83;;;1.70;73.00;;;;;;2615349;54;20123;-78
2022/12/18 17:57:24;;;;;;;24.10;19.63;;;1.70;71.60;;;;;;2613465;54;20158;-77
2022/12/18 18:03:12;;;;;;;30.70;20.00;;;1.70;71.30;;;;;;2611697;54;20134;-78
2022/12/18 18:06:24;;;;;;;28.83;19.30;;;1.60;71.50;;;;;;2612912;54;20420;-79
2022/12/18 18:08:50;;;;;;;23.87;18.00;;;1.60;70.50;;;;;;2612066;54;20435;-78
2022/12/18 18:14:38;;;;;;;19.40;14.87;;;1.60;69.60;;;;;;2613441;54;20464;-74
2022/12/18 18:23:47;;;;;;;27.83;19.43;;;1.60;67.10;;;;;;2612688;54;20371;-74
2022/12/18 18:29:35;;;;;;;24.30;15.77;;;1.60;64.80;;;;;;2612263;54;20399;-75
2022/12/18 18:35:22;;;;;;;25.40;19.03;;;1.50;65.80;;;;;;2614777;54;20379;-77
2022/12/18 18:41:10;;;;;;;22.00;19.30;;;1.50;66.30;;;;;;2613871;54;20126;-76
2022/12/18 18:46:58;;;;;;;28.23;19.70;;;1.50;67.50;;;;;;2614084;54;20226;-76
2022/12/18 18:52:46;;;;;;;30.03;20.83;;;1.50;64.60;;;;;;2616626;54;20389;-77
2022/12/18 18:58:34;;;;;;;30.27;21.07;;;1.40;70.90;;;;;;2615832;54;20129;-78
2022/12/18 19:04:22;;;;;;;29.27;22.13;;;1.40;70.00;;;;;;2615222;31;20829;-77
2022/12/18 19:13:32;;;;;;;32.30;23.17;;;1.50;69.70;;;;;;2616641;54;20398;-78
2022/12/18 19:19:20;;;;;;;28.33;23.23;;;1.50;69.60;;;;;;2615497;54;20391;-76
2022/12/18 19:25:08;;;;;;;36.80;24.77;;;1.40;72.80;;;;;;2617335;54;20158;-77
2022/12/18 19:31:02;;;;;;;33.30;23.20;;;1.50;69.90;;;;;;2616647;54;20383;-77
2022/12/18 19:36:50;;;;;;;35.40;22.77;;;1.50;67.00;;;;;;2612754;54;20410;-75
2022/12/18 19:42:41;;;;;;;26.87;17.00;;;1.40;69.00;;;;;;2615255;54;20142;-74
2022/12/18 19:48:29;;;;;;;29.43;20.60;;;1.40;65.40;;;;;;2614930;54;20395;-75
2022/12/18 19:54:16;;;;;;;27.23;21.63;;;1.40;64.00;;;;;;2616268;54;20369;-78
2022/12/18 20:00:04;;;;;;;26.60;19.67;;;1.40;62.80;;;;;;2616968;54;20137;-77
2022/12/18 20:03:08;;;;;;;35.23;22.57;;;1.40;62.70;;;;;;2616739;54;20408;-77
2022/12/18 20:05:33;;;;;;;28.73;20.90;;;1.40;60.30;;;;;;2614379;54;20503;-77
2022/12/18 20:08:58;;;;;;;31.70;22.10;;;1.50;60.30;;;;;;2615421;39;20792;-78
2022/12/18 20:11:24;;;;;;;32.53;20.50;;;1.50;59.10;;;;;;2617441;39;20284;-77
2022/12/18 20:17:11;;;;;;;31.73;22.30;;;1.50;58.90;;;;;;2614428;54;20429;-76
2022/12/18 20:23:00;;;;;;;34.90;22.10;;;1.50;57.60;;;;;;2615254;54;20161;-77
2022/12/18 20:28:48;;;;;;;32.77;22.50;;;1.50;57.20;;;;;;2613624;54;20422;-77
2022/12/18 20:34:35;;;;;;;21.57;16.90;;;1.50;58.10;;;;;;2613186;54;20394;-77
2022/12/18 20:40:24;;;;;;;31.00;21.83;;;1.50;63.40;;;;;;2615596;54;20231;-77
2022/12/18 20:46:15;;;;;;;27.63;21.43;;;1.50;73.20;;;;;;2617104;54;20371;-77
2022/12/18 20:52:02;;;;;;;33.13;23.03;;;1.50;75.80;;;;;;2617148;54;20467;-76
2022/12/18 20:57:51;;;;;;;32.10;22.57;;;1.50;85.80;;;;;;2616599;54;20162;-77
2022/12/18 21:03:41;;;;;;;39.63;24.07;;;1.50;92.30;;;;;;2615637;39;20777;-75
2022/12/18 21:13:31;;;;;;;30.43;20.97;;;1.30;99.90;;;;;;2614922;54;20463;-77
2022/12/18 21:19:22;;;;;;;29.40;20.40;;;1.30;99.90;;;;;;2614800;31;20839;-76
2022/12/18 21:25:10;;;;;;;33.43;22.60;;;1.20;99.90;;;;;;2613978;54;20504;-75
2022/12/18 21:30:58;;;;;;;25.80;18.17;;;1.30;99.90;;;;;;2614106;54;20239;-76
2022/12/18 21:36:46;;;;;;;30.90;19.97;;;1.40;99.90;;;;;;2616280;54;20661;-79
2022/12/18 21:48:42;;;;;;;24.63;17.93;;;1.40;99.90;;;;;;2616423;39;20860;-79
2022/12/18 21:54:30;;;;;;;32.00;18.53;;;1.50;99.90;;;;;;2615314;54;20382;-79
2022/12/18 22:00:18;;;;;;;33.57;21.07;;;1.60;99.90;;;;;;2619242;54;20139;-80
2022/12/18 22:06:06;;;;;;;34.30;20.73;;;1.50;99.90;;;;;;2616061;54;20412;-79
2022/12/18 22:09:00;;;;;;;33.97;17.77;;;1.60;99.90;;;;;;2616093;47;20415;-78
2022/12/18 22:11:26;;;;;;;16.83;12.20;;;1.60;99.90;;;;;;2614261;54;20422;-78
2022/12/18 22:17:13;;;;;;;31.17;19.60;;;1.60;99.90;;;;;;2614124;54;20134;-80
2022/12/18 22:23:02;;;;;;;38.63;17.53;;;1.60;99.90;;;;;;2615356;54;20254;-80
2022/12/18 22:34:57;;;;;;;36.43;21.63;;;1.60;99.90;;;;;;2616841;54;20422;-76
2022/12/18 22:40:45;;;;;;;27.67;15.20;;;1.60;99.90;;;;;;2616833;54;20407;-79
2022/12/18 22:46:37;;;;;;;29.17;18.30;;;1.60;99.90;;;;;;2616045;54;20218;-78
2022/12/18 22:52:24;;;;;;;35.73;21.00;;;1.60;99.90;;;;;;2615836;54;20390;-79
2022/12/18 22:58:12;;;;;;;34.27;21.43;;;1.60;99.90;;;;;;2616531;54;20169;-78
2022/12/18 23:04:00;;;;;;;38.83;20.63;;;1.60;99.90;;;;;;2616713;39;20667;-79
2022/12/18 23:13:33;;;;;;;25.50;16.53;;;1.70;99.90;;;;;;2615292;54;20995;-75
2022/12/18 23:19:21;;;;;;;33.27;19.57;;;1.70;99.90;;;;;;2615793;54;20390;-78
2022/12/18 23:25:09;;;;;;;32.47;20.70;;;1.70;99.90;;;;;;2616031;54;20395;-77
2022/12/18 23:41:56;;;;;;;36.27;23.43;;;1.70;99.90;;;;;;2614694;54;20374;-76
2022/12/18 23:47:44;;;;;;;29.60;18.07;;;1.80;99.90;;;;;;2616611;39;20784;-80
2022/12/18 23:53:34;;;;;;;32.50;19.47;;;1.80;99.90;;;;;;2616790;54;20127;-80
2022/12/18 23:59:21;;;;;;;31.77;21.60;;;2.00;99.90;;;;;;2616186;54;21093;-78
